Time;durP1;ratioP1;P1;durP2;ratioP2;P2;SDS_P1;SDS_P2;PMS_P1;PMS_P2;Temp;Humidity;BMP_temperature;BMP_pressure;BME280_temperature;BME280_humidity;BME280_pressure;Samples;Min_cycle;Max_cycle;Signal;HPM_P1;HPM_P2
2023/04/25 00:00:03;;;;;;;23.70;10.60;;;;;;;;;;2023539;29;20041;-73
2023/04/25 00:01:24;;;;;;;22.13;10.80;;;;;;;;;;2034132;29;20040;-73
2023/04/25 00:02:46;;;;;;;20.73;9.70;;;;;;;;;;2020163;29;20041;-73
2023/04/25 00:04:07;;;;;;;14.80;9.98;;;;;;;;;;2010691;29;20029;-73
2023/04/25 00:05:29;;;;;;;17.37;10.30;;;;;;;;;;2021098;29;20036;-73
2023/04/25 00:06:50;;;;;;;21.73;10.48;;;;;;;;;;2015288;29;20501;-73
2023/04/25 00:08:11;;;;;;;18.50;10.15;;;;;;;;;;2021273;29;20037;-73
2023/04/25 00:09:31;;;;;;;22.10;10.30;;;;;;;;;;2024271;29;20033;-73
2023/04/25 00:10:53;;;;;;;20.90;9.80;;;;;;;;;;2015130;29;20065;-73
2023/04/25 00:12:13;;;;;;;23.65;10.35;;;;;;;;;;2012045;29;20041;-73
2023/04/25 00:13:34;;;;;;;21.58;11.07;;;;;;;;;;2021371;29;20041;-74
2023/04/25 00:14:57;;;;;;;24.33;10.45;;;;;;;;;;2024284;29;20044;-73
2023/04/25 00:16:18;;;;;;;;;;;;;;;;;;2025379;29;20032;-73
2023/04/25 00:17:39;;;;;;;19.60;10.45;;;;;;;;;;2014531;29;19956;-74
2023/04/25 00:19:01;;;;;;;16.70;10.77;;;;;;;;;;2017911;29;20573;-73
2023/04/25 00:20:23;;;;;;;17.98;9.55;;;;;;;;;;2020786;29;20028;-73
2023/04/25 00:21:46;;;;;;;19.15;9.60;;;;;;;;;;2020147;29;20045;-73
2023/04/25 00:23:07;;;;;;;18.88;10.25;;;;;;;;;;2020950;29;20068;-73
2023/04/25 00:24:28;;;;;;;20.15;9.73;;;;;;;;;;2016416;29;20044;-73
2023/04/25 00:25:49;;;;;;;15.15;10.20;;;;;;;;;;2012067;29;20037;-73
2023/04/25 00:27:10;;;;;;;15.77;9.48;;;;;;;;;;2019955;29;20416;-73
2023/04/25 00:28:31;;;;;;;17.45;9.63;;;;;;;;;;2023589;29;20048;-73
2023/04/25 00:29:52;;;;;;;19.67;9.75;;;;;;;;;;2015587;29;20032;-73
2023/04/25 00:31:13;;;;;;;21.17;11.07;;;;;;;;;;2023246;29;20362;-73
2023/04/25 00:32:34;;;;;;;22.88;10.52;;;;;;;;;;2023205;29;20543;-73
2023/04/25 00:33:55;;;;;;;23.95;10.25;;;;;;;;;;2017173;29;20358;-72
2023/04/25 00:35:16;;;;;;;26.95;10.93;;;;;;;;;;2011195;29;20037;-73
2023/04/25 00:36:37;;;;;;;23.17;9.93;;;;;;;;;;2022291;29;20176;-73
2023/04/25 00:37:58;;;;;;;22.20;11.05;;;;;;;;;;2015368;29;20124;-73
2023/04/25 00:39:19;;;;;;;17.67;9.70;;;;;;;;;;2012979;29;20426;-73
2023/04/25 00:40:43;;;;;;;17.17;9.75;;;;;;;;;;2020740;29;20059;-73
2023/04/25 00:42:05;;;;;;;27.15;10.20;;;;;;;;;;2015491;29;20124;-73
2023/04/25 00:43:26;;;;;;;17.50;10.20;;;;;;;;;;2015640;29;20077;-73
2023/04/25 00:44:47;;;;;;;19.23;9.05;;;;;;;;;;2014736;29;20323;-73
2023/04/25 00:46:08;;;;;;;15.63;9.15;;;;;;;;;;2016300;29;20052;-73
2023/04/25 00:47:29;;;;;;;20.98;9.18;;;;;;;;;;2015368;29;20354;-73
2023/04/25 00:48:50;;;;;;;21.88;10.40;;;;;;;;;;2022677;29;20128;-73
2023/04/25 00:50:12;;;;;;;17.60;9.20;;;;;;;;;;2019250;29;20041;-73
2023/04/25 00:51:32;;;;;;;22.92;10.35;;;;;;;;;;2027043;29;20027;-73
2023/04/25 00:52:54;;;;;;;22.70;9.70;;;;;;;;;;2024081;29;20156;-73
2023/04/25 00:54:15;;;;;;;23.27;11.30;;;;;;;;;;2015843;29;20033;-73
2023/04/25 00:55:36;;;;;;;23.85;10.15;;;;;;;;;;2014736;29;20032;-73
2023/04/25 00:56:57;;;;;;;21.58;10.50;;;;;;;;;;2012920;29;20044;-73
2023/04/25 00:58:18;;;;;;;22.42;10.38;;;;;;;;;;2020413;29;20037;-73
2023/04/25 00:59:41;;;;;;;18.23;9.57;;;;;;;;;;2023851;29;20444;-73
2023/04/25 01:01:02;;;;;;;21.08;10.20;;;;;;;;;;2018282;29;20518;-78
2023/04/25 01:06:46;;;;;;;16.25;7.63;;;;;;;;;;503860;23;20295;-91
2023/04/25 01:08:07;;;;;;;21.27;10.25;;;;;;;;;;2021399;29;20112;-91
2023/04/25 01:09:29;;;;;;;21.85;10.32;;;;;;;;;;2022914;29;20036;-92
2023/04/25 01:10:50;;;;;;;23.40;10.65;;;;;;;;;;2025824;29;20037;-93
2023/04/25 01:12:12;;;;;;;23.73;10.40;;;;;;;;;;2023752;29;20037;-93
2023/04/25 01:13:33;;;;;;;21.08;10.85;;;;;;;;;;2016730;29;20377;-93
2023/04/25 01:14:54;;;;;;;26.33;10.18;;;;;;;;;;2026459;29;20428;-93
2023/04/25 01:16:15;;;;;;;20.95;10.05;;;;;;;;;;2028112;29;20479;-92
2023/04/25 01:17:36;;;;;;;25.60;11.55;;;;;;;;;;2015006;29;20097;-93
2023/04/25 01:18:57;;;;;;;24.95;11.00;;;;;;;;;;2015157;29;20057;-93
2023/04/25 01:20:20;;;;;;;24.08;11.20;;;;;;;;;;2022414;29;20337;-92
2023/04/25 01:21:41;;;;;;;20.98;10.35;;;;;;;;;;2028048;29;20099;-92
2023/04/25 01:23:03;;;;;;;24.23;10.98;;;;;;;;;;2020065;29;20507;-92
2023/04/25 01:24:24;;;;;;;23.38;10.90;;;;;;;;;;2023656;29;20033;-92
2023/04/25 01:25:45;;;;;;;25.02;11.07;;;;;;;;;;2025309;29;20168;-93
2023/04/25 01:27:06;;;;;;;23.88;11.13;;;;;;;;;;2019636;29;20040;-93
2023/04/25 01:28:27;;;;;;;20.92;10.57;;;;;;;;;;2023691;29;20074;-93
2023/04/25 01:29:49;;;;;;;26.57;11.10;;;;;;;;;;2024447;29;20025;-92
2023/04/25 01:31:11;;;;;;;19.90;10.35;;;;;;;;;;2023912;29;20427;-92
2023/04/25 01:32:38;;;;;;;20.75;10.88;;;;;;;;;;2020445;29;20043;-92
2023/04/25 01:33:58;;;;;;;22.17;10.25;;;;;;;;;;2016054;29;20052;-92
2023/04/25 01:35:19;;;;;;;23.92;10.73;;;;;;;;;;2026833;29;20144;-92
2023/04/25 01:36:40;;;;;;;32.33;13.02;;;;;;;;;;2029021;29;20032;-91
2023/04/25 01:38:01;;;;;;;36.05;14.50;;;;;;;;;;2021925;29;20167;-92
2023/04/25 01:39:23;;;;;;;25.02;10.52;;;;;;;;;;2023473;29;20033;-94
2023/04/25 01:40:45;;;;;;;26.92;11.48;;;;;;;;;;2021849;29;20037;-92
2023/04/25 01:42:06;;;;;;;23.42;11.57;;;;;;;;;;2027131;29;20036;-92
2023/04/25 01:43:27;;;;;;;23.40;10.27;;;;;;;;;;2023760;29;20021;-92
2023/04/25 01:44:47;;;;;;;22.95;11.32;;;;;;;;;;2023987;29;20421;-92
2023/04/25 01:46:09;;;;;;;18.90;10.30;;;;;;;;;;2025956;29;20036;-91
2023/04/25 01:47:32;;;;;;;23.73;11.43;;;;;;;;;;2022248;29;20404;-91
2023/04/25 01:48:53;;;;;;;25.27;11.57;;;;;;;;;;2022853;29;20135;-91
2023/04/25 01:50:14;;;;;;;23.63;9.65;;;;;;;;;;2023412;29;20162;-92
2023/04/25 01:51:36;;;;;;;18.52;9.52;;;;;;;;;;2021285;29;20036;-91
2023/04/25 01:52:57;;;;;;;19.95;9.75;;;;;;;;;;2024615;29;20048;-92
2023/04/25 01:54:18;;;;;;;21.10;10.18;;;;;;;;;;2024758;29;20436;-91
2023/04/25 01:55:39;;;;;;;24.10;10.43;;;;;;;;;;2022038;29;20460;-92
2023/04/25 01:57:01;;;;;;;24.27;12.07;;;;;;;;;;2018728;29;20036;-92
2023/04/25 01:58:22;;;;;;;18.60;10.43;;;;;;;;;;2023766;29;20070;-91
2023/04/25 01:59:43;;;;;;;23.77;10.02;;;;;;;;;;2023366;29;20108;-92
2023/04/25 02:01:04;;;;;;;29.38;12.85;;;;;;;;;;2027047;29;20362;-94
2023/04/25 02:02:26;;;;;;;22.17;11.10;;;;;;;;;;2021876;29;20029;-92
2023/04/25 02:03:46;;;;;;;22.63;10.30;;;;;;;;;;2024714;29;20048;-92
2023/04/25 02:05:07;;;;;;;27.70;12.57;;;;;;;;;;2023826;29;20055;-91
2023/04/25 02:06:28;;;;;;;23.30;11.00;;;;;;;;;;2020136;29;20040;-91
2023/04/25 02:07:49;;;;;;;22.48;10.77;;;;;;;;;;2022755;29;20052;-92
2023/04/25 02:09:10;;;;;;;22.05;11.20;;;;;;;;;;2015531;29;20552;-92
2023/04/25 02:10:31;;;;;;;27.85;11.85;;;;;;;;;;2020580;29;20036;-91
2023/04/25 02:11:52;;;;;;;26.42;10.90;;;;;;;;;;2020359;29;20484;-91
2023/04/25 02:13:13;;;;;;;21.88;11.43;;;;;;;;;;2029141;29;20040;-91
2023/04/25 02:14:34;;;;;;;24.08;11.75;;;;;;;;;;2024050;29;20028;-93
2023/04/25 02:15:55;;;;;;;24.35;11.45;;;;;;;;;;2025782;29;20385;-92
2023/04/25 02:17:16;;;;;;;25.95;9.80;;;;;;;;;;2028741;29;20033;-92
2023/04/25 02:18:37;;;;;;;30.25;11.52;;;;;;;;;;2019849;29;20064;-92
2023/04/25 02:19:58;;;;;;;29.90;11.05;;;;;;;;;;2027667;29;20456;-94
2023/04/25 02:21:19;;;;;;;25.10;11.02;;;;;;;;;;2031965;29;20024;-93
2023/04/25 02:22:40;;;;;;;26.25;11.88;;;;;;;;;;2026011;29;20514;-94
2023/04/25 02:24:01;;;;;;;24.77;11.05;;;;;;;;;;2024284;29;20037;-93
2023/04/25 02:25:22;;;;;;;27.23;11.32;;;;;;;;;;2026175;29;20021;-94
2023/04/25 02:26:44;;;;;;;19.90;11.18;;;;;;;;;;2026398;29;20040;-95
2023/04/25 02:28:05;;;;;;;25.98;11.30;;;;;;;;;;2022550;29;20036;-91
2023/04/25 02:29:26;;;;;;;24.30;12.35;;;;;;;;;;2027345;29;20380;-93
2023/04/25 02:30:46;;;;;;;28.23;12.25;;;;;;;;;;2027512;29;20469;-94
2023/04/25 02:32:07;;;;;;;25.42;10.75;;;;;;;;;;2027527;29;20033;-91
2023/04/25 02:33:28;;;;;;;28.48;11.70;;;;;;;;;;2024550;29;20029;-91
2023/04/25 02:34:50;;;;;;;26.40;11.13;;;;;;;;;;2024289;29;20036;-91
2023/04/25 02:36:11;;;;;;;30.92;11.38;;;;;;;;;;2028448;29;20028;-91
2023/04/25 02:37:35;;;;;;;28.25;11.35;;;;;;;;;;2023576;29;20028;-93
2023/04/25 02:38:56;;;;;;;30.20;11.30;;;;;;;;;;2026019;29;20041;-94
2023/04/25 02:40:17;;;;;;;24.17;11.02;;;;;;;;;;2022664;29;20036;-94
2023/04/25 02:41:38;;;;;;;30.95;11.77;;;;;;;;;;2031726;29;20024;-92
2023/04/25 02:42:59;;;;;;;20.13;9.88;;;;;;;;;;2022622;29;20052;-92
2023/04/25 02:44:20;;;;;;;25.92;11.48;;;;;;;;;;2031524;29;20028;-91
2023/04/25 02:45:41;;;;;;;24.13;11.18;;;;;;;;;;2026398;29;20033;-92
2023/04/25 02:47:01;;;;;;;30.48;12.52;;;;;;;;;;2029577;29;20036;-92
2023/04/25 02:48:22;;;;;;;20.58;12.23;;;;;;;;;;2023952;29;20032;-92
2023/04/25 02:49:46;;;;;;;23.95;11.57;;;;;;;;;;2027396;29;20040;-92
2023/04/25 02:51:07;;;;;;;24.70;11.65;;;;;;;;;;2030234;29;20039;-96
2023/04/25 02:52:28;;;;;;;26.50;13.05;;;;;;;;;;2027881;29;20060;-96
2023/04/25 02:53:49;;;;;;;21.98;11.02;;;;;;;;;;2018330;29;20033;-96
2023/04/25 02:55:12;;;;;;;22.33;11.40;;;;;;;;;;2022735;29;20570;-96
2023/04/25 02:56:33;;;;;;;22.42;10.75;;;;;;;;;;2032239;29;20043;-95
2023/04/25 02:57:55;;;;;;;25.73;11.57;;;;;;;;;;2028572;29;20039;-95
2023/04/25 02:59:16;;;;;;;24.33;11.13;;;;;;;;;;2025516;29;20044;-95
2023/04/25 03:00:37;;;;;;;34.88;12.10;;;;;;;;;;2026610;29;20032;-91
2023/04/25 03:01:58;;;;;;;24.92;11.77;;;;;;;;;;2029146;29;20052;-91
2023/04/25 03:03:21;;;;;;;25.55;11.73;;;;;;;;;;2026442;29;20040;-91
2023/04/25 03:04:42;;;;;;;24.77;11.25;;;;;;;;;;2024727;29;20400;-91
2023/04/25 03:06:03;;;;;;;28.85;11.32;;;;;;;;;;2028063;29;20028;-92
2023/04/25 03:07:24;;;;;;;30.33;12.07;;;;;;;;;;2026299;29;20484;-91
2023/04/25 03:08:45;;;;;;;21.70;10.63;;;;;;;;;;2025368;29;20029;-91
2023/04/25 03:10:06;;;;;;;25.45;10.93;;;;;;;;;;2023493;29;20036;-92
2023/04/25 03:11:27;;;;;;;23.63;10.90;;;;;;;;;;2031539;29;20040;-91
2023/04/25 03:12:48;;;;;;;25.77;11.02;;;;;;;;;;2018688;29;20037;-92
2023/04/25 03:14:09;;;;;;;26.42;11.85;;;;;;;;;;2015964;29;20041;-91
2023/04/25 03:15:31;;;;;;;27.83;11.27;;;;;;;;;;2023554;29;20032;-92
2023/04/25 03:16:51;;;;;;;29.30;12.07;;;;;;;;;;2024220;29;20040;-92
2023/04/25 03:18:12;;;;;;;22.70;10.70;;;;;;;;;;2027647;29;20040;-92
2023/04/25 03:19:33;;;;;;;21.15;11.52;;;;;;;;;;2016602;29;20120;-92
2023/04/25 03:20:54;;;;;;;29.23;11.55;;;;;;;;;;2025867;29;20032;-92
2023/04/25 03:22:15;;;;;;;26.52;11.40;;;;;;;;;;2027328;29;20043;-92
2023/04/25 03:23:36;;;;;;;29.17;11.30;;;;;;;;;;2022484;29;20476;-92
2023/04/25 03:24:57;;;;;;;27.02;12.27;;;;;;;;;;2021477;29;20055;-91
2023/04/25 03:26:18;;;;;;;23.77;11.05;;;;;;;;;;2029340;29;20028;-90
2023/04/25 03:27:39;;;;;;;24.02;11.38;;;;;;;;;;2031011;29;20024;-92
2023/04/25 03:29:00;;;;;;;24.80;11.25;;;;;;;;;;2024844;29;20140;-91
2023/04/25 03:30:21;;;;;;;20.10;10.30;;;;;;;;;;2021127;29;20104;-92
2023/04/25 03:31:42;;;;;;;30.45;12.35;;;;;;;;;;2030437;29;20024;-92
2023/04/25 03:33:03;;;;;;;21.92;11.27;;;;;;;;;;2025053;29;20445;-91
2023/04/25 03:34:24;;;;;;;27.25;12.00;;;;;;;;;;2023372;29;20043;-91
2023/04/25 03:35:45;;;;;;;21.23;10.35;;;;;;;;;;2022022;29;20439;-92
2023/04/25 03:37:06;;;;;;;27.67;11.13;;;;;;;;;;2025108;29;20041;-92
2023/04/25 03:38:27;;;;;;;26.70;13.27;;;;;;;;;;2017546;29;20420;-92
2023/04/25 03:39:48;;;;;;;24.38;11.73;;;;;;;;;;2018287;29;20033;-92
2023/04/25 03:41:09;;;;;;;30.10;12.20;;;;;;;;;;2024680;29;20036;-92
2023/04/25 03:42:29;;;;;;;22.20;11.52;;;;;;;;;;2029713;29;20506;-92
2023/04/25 03:43:50;;;;;;;24.40;11.30;;;;;;;;;;2025140;29;20036;-92
2023/04/25 03:45:11;;;;;;;26.83;12.13;;;;;;;;;;2019195;29;20037;-91
2023/04/25 03:46:32;;;;;;;22.70;10.77;;;;;;;;;;2027351;29;20491;-91
2023/04/25 03:47:53;;;;;;;21.67;11.18;;;;;;;;;;2015828;29;20104;-91
2023/04/25 03:49:14;;;;;;;20.00;10.20;;;;;;;;;;2022981;29;20508;-92
2023/04/25 03:50:35;;;;;;;23.92;11.77;;;;;;;;;;2025744;29;20288;-92
2023/04/25 03:51:56;;;;;;;30.08;11.55;;;;;;;;;;2022098;29;20044;-92
2023/04/25 03:53:17;;;;;;;28.42;11.05;;;;;;;;;;2022182;29;20029;-92
2023/04/25 03:54:38;;;;;;;23.35;10.77;;;;;;;;;;2025780;29;20042;-90
2023/04/25 03:55:59;;;;;;;25.20;11.05;;;;;;;;;;2027082;29;20032;-92
2023/04/25 03:57:20;;;;;;;24.58;11.82;;;;;;;;;;2022491;29;20166;-91
2023/04/25 03:58:41;;;;;;;34.33;13.50;;;;;;;;;;2023841;29;20036;-91
2023/04/25 04:00:04;;;;;;;29.88;12.43;;;;;;;;;;2024787;29;20039;-92
2023/04/25 04:01:25;;;;;;;25.67;10.55;;;;;;;;;;2029572;29;20070;-92
2023/04/25 04:02:45;;;;;;;23.33;11.68;;;;;;;;;;2014393;29;20148;-92
2023/04/25 04:04:06;;;;;;;30.30;12.15;;;;;;;;;;2016047;29;20133;-92
2023/04/25 04:05:28;;;;;;;28.48;12.48;;;;;;;;;;2027481;29;20437;-91
2023/04/25 04:06:49;;;;;;;28.80;12.02;;;;;;;;;;2021280;29;20639;-92
2023/04/25 04:08:10;;;;;;;23.92;11.68;;;;;;;;;;2024816;29;20033;-91
2023/04/25 04:09:31;;;;;;;23.10;11.45;;;;;;;;;;2024118;29;20400;-92
2023/04/25 04:10:52;;;;;;;23.73;11.18;;;;;;;;;;2021626;29;20028;-92
2023/04/25 04:12:13;;;;;;;19.92;10.95;;;;;;;;;;2024092;29;20033;-91
2023/04/25 04:13:34;;;;;;;21.67;12.32;;;;;;;;;;2024852;29;20025;-91
2023/04/25 04:14:55;;;;;;;26.00;11.38;;;;;;;;;;2021312;29;20108;-92
2023/04/25 04:16:16;;;;;;;26.23;12.63;;;;;;;;;;2024260;29;20044;-90
2023/04/25 04:17:36;;;;;;;26.65;11.75;;;;;;;;;;2022085;29;20051;-91
2023/04/25 04:18:57;;;;;;;25.38;11.55;;;;;;;;;;2017115;29;20049;-92
2023/04/25 04:20:18;;;;;;;25.33;11.55;;;;;;;;;;2023562;29;20044;-92
2023/04/25 04:21:39;;;;;;;21.52;11.50;;;;;;;;;;2029427;29;20043;-92
2023/04/25 04:23:01;;;;;;;24.27;11.55;;;;;;;;;;2017644;29;20057;-92
2023/04/25 04:24:22;;;;;;;26.48;11.38;;;;;;;;;;2022940;29;20040;-92
2023/04/25 04:25:43;;;;;;;27.40;12.02;;;;;;;;;;2024970;29;20151;-92
2023/04/25 04:27:04;;;;;;;27.65;10.82;;;;;;;;;;2023563;29;20029;-92
2023/04/25 04:28:26;;;;;;;21.45;11.13;;;;;;;;;;2021669;29;20416;-92
2023/04/25 04:29:47;;;;;;;28.10;11.63;;;;;;;;;;2024030;29;20043;-92
2023/04/25 04:31:09;;;;;;;32.30;12.80;;;;;;;;;;2026279;29;20048;-92
2023/04/25 04:32:30;;;;;;;;;;;;;;;;;;2022917;29;20051;-92
2023/04/25 04:33:51;;;;;;;28.80;12.15;;;;;;;;;;2024992;29;19911;-92
2023/04/25 04:35:12;;;;;;;27.38;12.05;;;;;;;;;;2026696;29;20059;-92
2023/04/25 04:36:33;;;;;;;26.85;11.32;;;;;;;;;;2022536;29;20043;-92
2023/04/25 04:37:55;;;;;;;28.42;12.93;;;;;;;;;;2022528;29;20112;-92
2023/04/25 04:39:16;;;;;;;31.40;12.25;;;;;;;;;;2014336;29;20041;-92
2023/04/25 04:40:37;;;;;;;31.23;11.98;;;;;;;;;;2021725;29;20029;-92
2023/04/25 04:41:58;;;;;;;28.48;12.43;;;;;;;;;;2022365;29;20035;-90
2023/04/25 04:43:19;;;;;;;22.17;12.00;;;;;;;;;;2023593;29;20036;-91
2023/04/25 04:44:40;;;;;;;25.10;11.68;;;;;;;;;;2022092;29;20037;-90
2023/04/25 04:46:01;;;;;;;28.58;12.30;;;;;;;;;;2026967;29;20037;-91
2023/04/25 04:47:23;;;;;;;23.25;11.52;;;;;;;;;;2025975;29;20029;-91
2023/04/25 04:48:44;;;;;;;29.48;11.88;;;;;;;;;;2023239;29;20039;-91
2023/04/25 04:50:09;;;;;;;26.48;11.70;;;;;;;;;;2024441;29;20044;-92
2023/04/25 04:51:31;;;;;;;40.20;13.52;;;;;;;;;;2028501;29;20036;-91
2023/04/25 04:52:51;;;;;;;35.17;11.88;;;;;;;;;;2015169;29;20067;-91
2023/04/25 04:54:13;;;;;;;23.73;10.73;;;;;;;;;;2014940;29;20330;-91
2023/04/25 04:55:34;;;;;;;28.90;12.30;;;;;;;;;;2020702;29;20033;-91
2023/04/25 04:56:55;;;;;;;29.50;11.75;;;;;;;;;;2019818;29;20049;-91
2023/04/25 04:58:16;;;;;;;21.17;10.40;;;;;;;;;;2024698;29;20033;-91
2023/04/25 04:59:37;;;;;;;30.75;12.15;;;;;;;;;;2021717;29;20049;-90
2023/04/25 05:00:58;;;;;;;29.30;12.50;;;;;;;;;;2025527;29;20512;-91
2023/04/25 05:02:19;;;;;;;24.88;11.48;;;;;;;;;;2026187;29;20059;-91
2023/04/25 05:03:40;;;;;;;28.70;12.52;;;;;;;;;;2024674;29;20111;-91
2023/04/25 05:05:01;;;;;;;26.42;12.23;;;;;;;;;;2022452;29;20052;-91
2023/04/25 05:06:22;;;;;;;37.60;14.23;;;;;;;;;;2028122;29;20102;-91
2023/04/25 05:07:43;;;;;;;27.98;12.85;;;;;;;;;;2019180;29;20362;-91
2023/04/25 05:09:04;;;;;;;27.20;12.70;;;;;;;;;;2023042;29;20059;-91
2023/04/25 05:10:25;;;;;;;28.63;11.95;;;;;;;;;;2023653;29;20039;-91
2023/04/25 05:11:46;;;;;;;26.17;12.38;;;;;;;;;;2028566;29;20543;-89
2023/04/25 05:13:07;;;;;;;26.23;12.05;;;;;;;;;;2021804;29;20299;-91
2023/04/25 05:14:28;;;;;;;29.35;11.20;;;;;;;;;;2021478;29;20055;-91
2023/04/25 05:15:49;;;;;;;27.05;11.77;;;;;;;;;;2022246;29;20037;-91
2023/04/25 05:17:10;;;;;;;23.85;11.27;;;;;;;;;;2025770;29;20048;-91
2023/04/25 05:18:31;;;;;;;22.52;11.77;;;;;;;;;;2026402;29;20029;-91
2023/04/25 05:19:52;;;;;;;28.58;10.60;;;;;;;;;;2023116;29;20060;-90
2023/04/25 05:21:13;;;;;;;23.17;12.43;;;;;;;;;;2028451;29;20451;-91
2023/04/25 05:22:34;;;;;;;26.58;11.40;;;;;;;;;;2016071;29;20044;-91
2023/04/25 05:23:55;;;;;;;27.15;12.07;;;;;;;;;;2029979;29;20032;-90
2023/04/25 05:25:16;;;;;;;35.45;11.77;;;;;;;;;;2023277;29;20052;-91
2023/04/25 05:26:37;;;;;;;24.55;11.13;;;;;;;;;;2029249;29;20032;-91
2023/04/25 05:27:58;;;;;;;29.30;11.30;;;;;;;;;;2024455;29;20661;-91
2023/04/25 05:29:19;;;;;;;21.15;10.60;;;;;;;;;;2023823;29;20041;-92
2023/04/25 05:30:40;;;;;;;20.60;9.93;;;;;;;;;;2022044;29;20058;-91
2023/04/25 05:32:01;;;;;;;18.83;11.00;;;;;;;;;;2021930;29;20032;-91
2023/04/25 05:33:22;;;;;;;24.95;11.07;;;;;;;;;;2023404;29;20357;-91
2023/04/25 05:34:43;;;;;;;24.02;11.63;;;;;;;;;;2022117;29;20037;-91
2023/04/25 05:36:04;;;;;;;22.73;10.70;;;;;;;;;;2025634;29;20048;-91
2023/04/25 05:37:25;;;;;;;22.35;11.00;;;;;;;;;;2023880;29;20036;-91
2023/04/25 05:38:46;;;;;;;26.55;10.98;;;;;;;;;;2024233;29;20334;-91
2023/04/25 05:40:07;;;;;;;22.30;10.38;;;;;;;;;;2020958;29;20040;-91
2023/04/25 05:41:28;;;;;;;25.98;11.88;;;;;;;;;;2029406;29;20420;-91
2023/04/25 05:42:49;;;;;;;25.42;13.30;;;;;;;;;;2024291;29;20037;-91
2023/04/25 05:44:10;;;;;;;20.30;11.52;;;;;;;;;;2023130;29;20490;-91
2023/04/25 05:45:31;;;;;;;22.95;11.27;;;;;;;;;;2021953;29;20043;-91
2023/04/25 05:46:52;;;;;;;22.52;10.43;;;;;;;;;;2023390;29;20063;-91
2023/04/25 05:48:12;;;;;;;20.48;10.95;;;;;;;;;;2024486;29;20037;-91
2023/04/25 05:49:34;;;;;;;22.50;11.10;;;;;;;;;;2022946;29;20384;-91
2023/04/25 05:50:55;;;;;;;26.73;11.93;;;;;;;;;;2023261;29;20041;-91
2023/04/25 05:52:16;;;;;;;27.98;11.90;;;;;;;;;;2031109;29;20032;-91
2023/04/25 05:53:36;;;;;;;24.42;11.10;;;;;;;;;;2024645;29;20037;-91
2023/04/25 05:54:57;;;;;;;21.10;11.40;;;;;;;;;;2023151;29;20042;-91
2023/04/25 05:56:18;;;;;;;20.70;10.77;;;;;;;;;;2028398;29;20111;-91
2023/04/25 05:57:41;;;;;;;21.95;10.07;;;;;;;;;;2030335;29;20497;-91
2023/04/25 05:59:02;;;;;;;22.50;11.43;;;;;;;;;;2023298;29;20032;-90
2023/04/25 06:00:24;;;;;;;24.08;10.88;;;;;;;;;;2022660;29;20137;-91
2023/04/25 06:01:46;;;;;;;31.65;11.25;;;;;;;;;;2029611;29;20032;-91
2023/04/25 06:03:09;;;;;;;20.23;10.50;;;;;;;;;;2021078;29;20033;-91
2023/04/25 06:04:30;;;;;;;21.02;10.60;;;;;;;;;;2024497;29;20025;-91
2023/04/25 06:05:51;;;;;;;23.98;10.85;;;;;;;;;;2021829;29;20032;-91
2023/04/25 06:07:12;;;;;;;18.52;10.45;;;;;;;;;;2031755;29;20059;-90
2023/04/25 06:08:33;;;;;;;23.27;11.43;;;;;;;;;;2024407;29;20029;-91
2023/04/25 06:09:54;;;;;;;22.85;10.82;;;;;;;;;;2022440;29;20095;-91
2023/04/25 06:11:15;;;;;;;25.00;10.90;;;;;;;;;;2027892;29;20050;-90
2023/04/25 06:12:36;;;;;;;26.50;10.18;;;;;;;;;;2029836;29;20031;-91
2023/04/25 06:13:57;;;;;;;20.48;10.50;;;;;;;;;;2021321;29;20590;-91
2023/04/25 06:15:18;;;;;;;22.67;10.52;;;;;;;;;;2024329;29;20029;-91
2023/04/25 06:16:39;;;;;;;25.17;11.70;;;;;;;;;;2025484;29;20037;-90
2023/04/25 06:18:00;;;;;;;18.65;10.52;;;;;;;;;;2019153;29;20625;-91
2023/04/25 06:19:21;;;;;;;18.38;11.00;;;;;;;;;;2016424;29;20044;-91
2023/04/25 06:20:42;;;;;;;19.85;10.35;;;;;;;;;;2023087;29;20032;-91
2023/04/25 06:22:03;;;;;;;22.17;11.25;;;;;;;;;;2022295;29;20080;-91
2023/04/25 06:23:23;;;;;;;24.45;10.88;;;;;;;;;;2022716;29;20043;-91
2023/04/25 06:24:45;;;;;;;22.60;10.20;;;;;;;;;;2020420;29;20028;-91
2023/04/25 06:26:06;;;;;;;21.08;10.40;;;;;;;;;;2021121;29;20084;-91
2023/04/25 06:27:27;;;;;;;21.40;10.32;;;;;;;;;;2020932;29;20155;-91
2023/04/25 06:28:48;;;;;;;20.33;10.15;;;;;;;;;;2014454;29;20056;-90
2023/04/25 06:30:11;;;;;;;16.40;9.68;;;;;;;;;;2016190;29;20096;-90
2023/04/25 06:31:33;;;;;;;16.83;9.90;;;;;;;;;;2023090;29;20171;-91
2023/04/25 06:32:54;;;;;;;;;;;;;;;;;;2025028;29;20029;-91
2023/04/25 06:34:15;;;;;;;19.90;9.82;;;;;;;;;;2024915;29;19911;-91
2023/04/25 06:35:36;;;;;;;18.70;10.17;;;;;;;;;;2024584;29;20055;-91
2023/04/25 06:36:57;;;;;;;22.48;10.35;;;;;;;;;;2023736;29;20435;-91
2023/04/25 06:38:18;;;;;;;15.40;9.15;;;;;;;;;;2023425;29;20424;-91
2023/04/25 06:39:39;;;;;;;21.10;9.07;;;;;;;;;;2020539;29;20049;-91
2023/04/25 06:41:00;;;;;;;21.35;8.63;;;;;;;;;;2021372;29;20108;-91
2023/04/25 06:42:21;;;;;;;26.75;9.40;;;;;;;;;;2022537;29;20375;-91
2023/04/25 06:43:42;;;;;;;18.48;8.40;;;;;;;;;;2021841;29;20041;-91
2023/04/25 06:45:03;;;;;;;14.60;7.95;;;;;;;;;;2017129;29;20072;-91
2023/04/25 06:46:24;;;;;;;29.27;8.65;;;;;;;;;;2022379;29;20048;-91
2023/04/25 06:47:45;;;;;;;21.15;8.48;;;;;;;;;;2024086;29;20029;-91
2023/04/25 06:49:06;;;;;;;14.90;7.65;;;;;;;;;;2017671;29;20073;-91
2023/04/25 06:50:27;;;;;;;15.63;7.75;;;;;;;;;;2027774;29;20051;-91
2023/04/25 06:51:48;;;;;;;21.40;8.13;;;;;;;;;;2023915;29;20043;-91
2023/04/25 06:53:09;;;;;;;25.30;8.32;;;;;;;;;;2022193;29;20048;-91
2023/04/25 06:54:30;;;;;;;21.02;7.85;;;;;;;;;;2024136;29;20028;-90
2023/04/25 06:55:51;;;;;;;23.70;8.10;;;;;;;;;;2021996;29;20040;-91
2023/04/25 06:57:12;;;;;;;17.13;7.90;;;;;;;;;;2023849;29;20033;-90
2023/04/25 06:58:32;;;;;;;13.60;7.20;;;;;;;;;;2023399;29;20075;-91
2023/04/25 06:59:53;;;;;;;20.05;7.63;;;;;;;;;;2022051;29;20036;-91
2023/04/25 07:01:14;;;;;;;13.60;7.40;;;;;;;;;;2034153;29;20392;-90
2023/04/25 07:02:35;;;;;;;19.48;7.30;;;;;;;;;;2023780;29;20174;-91
2023/04/25 07:03:56;;;;;;;18.00;7.40;;;;;;;;;;2023373;29;20119;-91
2023/04/25 07:05:17;;;;;;;12.40;6.25;;;;;;;;;;2024700;29;20040;-91
2023/04/25 07:06:42;;;;;;;15.15;6.30;;;;;;;;;;2028102;29;20084;-91
2023/04/25 07:08:03;;;;;;;15.43;6.80;;;;;;;;;;2023825;29;20053;-91
2023/04/25 07:09:24;;;;;;;21.50;8.50;;;;;;;;;;2023505;29;20484;-91
2023/04/25 07:10:46;;;;;;;19.98;7.55;;;;;;;;;;2023287;29;20074;-91
2023/04/25 07:12:06;;;;;;;16.77;6.28;;;;;;;;;;2026280;29;20029;-90
2023/04/25 07:13:27;;;;;;;15.35;6.70;;;;;;;;;;2025147;29;20616;-91
2023/04/25 07:14:48;;;;;;;21.50;7.25;;;;;;;;;;2015001;29;20049;-91
2023/04/25 07:16:09;;;;;;;21.35;7.20;;;;;;;;;;2025649;29;20033;-91
2023/04/25 07:17:30;;;;;;;22.70;7.40;;;;;;;;;;2025021;29;20405;-91
2023/04/25 07:18:51;;;;;;;12.23;6.40;;;;;;;;;;2020487;29;20048;-91
2023/04/25 07:20:12;;;;;;;14.02;6.90;;;;;;;;;;2020939;29;20053;-91
2023/04/25 07:21:33;;;;;;;11.85;6.88;;;;;;;;;;2029937;29;20032;-91
2023/04/25 07:22:54;;;;;;;12.93;6.18;;;;;;;;;;2027409;29;20464;-91
2023/04/25 07:24:15;;;;;;;18.73;7.15;;;;;;;;;;2031726;29;20162;-91
2023/04/25 07:25:36;;;;;;;13.38;6.88;;;;;;;;;;2022356;29;20092;-91
2023/04/25 07:26:58;;;;;;;18.63;6.95;;;;;;;;;;2022912;29;20025;-91
2023/04/25 07:28:19;;;;;;;13.15;6.70;;;;;;;;;;2025846;29;20025;-91
2023/04/25 07:29:40;;;;;;;17.90;6.78;;;;;;;;;;2024717;29;20437;-90
2023/04/25 07:31:00;;;;;;;19.67;6.90;;;;;;;;;;2025009;29;20060;-91
2023/04/25 07:32:21;;;;;;;12.80;6.10;;;;;;;;;;2023201;29;20152;-91
2023/04/25 07:33:42;;;;;;;15.75;6.68;;;;;;;;;;2024887;29;20037;-91
2023/04/25 07:35:03;;;;;;;14.43;6.28;;;;;;;;;;2016740;29;20092;-90
2023/04/25 07:36:26;;;;;;;17.98;6.78;;;;;;;;;;2024089;29;20417;-91
2023/04/25 07:37:47;;;;;;;15.82;6.30;;;;;;;;;;2015989;29;20041;-91
2023/04/25 07:39:09;;;;;;;14.10;5.85;;;;;;;;;;2015563;29;20497;-91
2023/04/25 07:40:30;;;;;;;14.32;5.70;;;;;;;;;;2027560;29;20043;-90
2023/04/25 07:41:50;;;;;;;14.55;6.40;;;;;;;;;;2026426;29;20035;-91
2023/04/25 07:43:14;;;;;;;13.45;6.05;;;;;;;;;;2024008;29;20055;-91
2023/04/25 07:44:42;;;;;;;13.68;6.53;;;;;;;;;;2023251;29;20036;-91
2023/04/25 07:46:03;;;;;;;12.68;6.65;;;;;;;;;;2028298;29;20033;-90
2023/04/25 07:47:24;;;;;;;16.45;6.68;;;;;;;;;;2024534;29;20039;-90
2023/04/25 07:48:44;;;;;;;17.95;6.95;;;;;;;;;;2025395;29;20117;-90
2023/04/25 07:50:06;;;;;;;15.00;6.35;;;;;;;;;;2021984;29;20068;-90
2023/04/25 07:51:27;;;;;;;16.83;6.75;;;;;;;;;;2027340;29;20035;-90
2023/04/25 07:52:48;;;;;;;15.68;6.25;;;;;;;;;;2021961;29;20235;-90
2023/04/25 07:54:09;;;;;;;13.18;6.68;;;;;;;;;;2025287;29;20051;-90
2023/04/25 07:55:30;;;;;;;15.20;6.63;;;;;;;;;;2023558;29;20077;-90
2023/04/25 07:56:51;;;;;;;13.75;7.40;;;;;;;;;;2026676;29;20416;-90
2023/04/25 07:58:12;;;;;;;10.57;6.05;;;;;;;;;;2025200;29;20041;-90